sensor_id;sensor_type;location;lat;lon;timestamp;pressure;altitude;pressure_sealevel;temperature;humidity
59825;BME280;45703;50.898;6.054;2023-03-29T00:00:07;100305.31;;;7.07;75.85
59825;BME280;45703;50.898;6.054;2023-03-29T00:02:39;100301.47;;;7.09;75.68
59825;BME280;45703;50.898;6.054;2023-03-29T00:05:05;100292.88;;;7.07;75.87
59825;BME280;45703;50.898;6.054;2023-03-29T00:07:31;100291.22;;;7.06;75.77
59825;BME280;45703;50.898;6.054;2023-03-29T00:10:01;100288.38;;;7.07;75.52
59825;BME280;45703;50.898;6.054;2023-03-29T00:12:29;100278.59;;;7.08;75.42
59825;BME280;45703;50.898;6.054;2023-03-29T00:14:54;100283.28;;;7.12;75.42
59825;BME280;45703;50.898;6.054;2023-03-29T00:17:20;100276.16;;;7.13;75.39
59825;BME280;45703;50.898;6.054;2023-03-29T00:19:46;100276.16;;;7.13;75.12
59825;BME280;45703;50.898;6.054;2023-03-29T00:22:12;100276.94;;;7.13;75.16
59825;BME280;45703;50.898;6.054;2023-03-29T00:24:38;100262.25;;;7.11;75.33
59825;BME280;45703;50.898;6.054;2023-03-29T00:27:04;100272.06;;;7.17;75.26
59825;BME280;45703;50.898;6.054;2023-03-29T00:29:29;100274.75;;;7.17;75.45
59825;BME280;45703;50.898;6.054;2023-03-29T00:31:55;100271.06;;;7.18;75.29
59825;BME280;45703;50.898;6.054;2023-03-29T00:34:22;100277.22;;;7.25;74.72
59825;BME280;45703;50.898;6.054;2023-03-29T00:36:47;100258.00;;;7.23;74.76
59825;BME280;45703;50.898;6.054;2023-03-29T00:39:16;100272.53;;;7.27;74.64
59825;BME280;45703;50.898;6.054;2023-03-29T00:41:44;100270.69;;;7.27;74.73
59825;BME280;45703;50.898;6.054;2023-03-29T00:47:13;100269.69;;;7.35;74.00
59825;BME280;45703;50.898;6.054;2023-03-29T00:49:38;100263.97;;;7.38;73.81
59825;BME280;45703;50.898;6.054;2023-03-29T00:52:04;100267.47;;;7.38;73.61
59825;BME280;45703;50.898;6.054;2023-03-29T00:54:31;100255.41;;;7.42;73.12
59825;BME280;45703;50.898;6.054;2023-03-29T00:56:57;100247.44;;;7.42;73.22
59825;BME280;45703;50.898;6.054;2023-03-29T00:59:27;100251.34;;;7.46;73.70
59825;BME280;45703;50.898;6.054;2023-03-29T01:02:00;100250.13;;;7.49;72.46
59825;BME280;45703;50.898;6.054;2023-03-29T01:04:31;100244.81;;;7.49;72.96
59825;BME280;45703;50.898;6.054;2023-03-29T01:07:05;100243.19;;;7.61;72.22
59825;BME280;45703;50.898;6.054;2023-03-29T01:09:35;100237.28;;;7.59;72.77
59825;BME280;45703;50.898;6.054;2023-03-29T01:12:09;100229.69;;;7.62;72.72
59825;BME280;45703;50.898;6.054;2023-03-29T01:17:09;100219.91;;;7.63;72.40
59825;BME280;45703;50.898;6.054;2023-03-29T01:19:41;100204.38;;;7.60;72.15
59825;BME280;45703;50.898;6.054;2023-03-29T01:22:38;100222.78;;;7.68;72.44
59825;BME280;45703;50.898;6.054;2023-03-29T01:25:34;100216.84;;;7.66;72.58
59825;BME280;45703;50.898;6.054;2023-03-29T01:28:05;100217.88;;;7.65;72.18
59825;BME280;45703;50.898;6.054;2023-03-29T01:31:07;100205.00;;;7.68;72.53
59825;BME280;45703;50.898;6.054;2023-03-29T01:33:44;100202.13;;;7.70;71.88
59825;BME280;45703;50.898;6.054;2023-03-29T01:36:15;100206.03;;;7.80;71.21
59825;BME280;45703;50.898;6.054;2023-03-29T01:39:02;100204.16;;;7.81;71.33
59825;BME280;45703;50.898;6.054;2023-03-29T01:41:36;100196.00;;;7.82;71.58
59825;BME280;45703;50.898;6.054;2023-03-29T01:44:11;100192.53;;;7.82;71.09
59825;BME280;45703;50.898;6.054;2023-03-29T01:46:46;100199.06;;;7.86;71.02
59825;BME280;45703;50.898;6.054;2023-03-29T01:49:24;100210.53;;;7.93;70.55
59825;BME280;45703;50.898;6.054;2023-03-29T01:51:57;100203.97;;;7.95;70.49
59825;BME280;45703;50.898;6.054;2023-03-29T01:54:32;100195.38;;;7.93;70.87
59825;BME280;45703;50.898;6.054;2023-03-29T01:57:00;100198.28;;;7.92;70.78
59825;BME280;45703;50.898;6.054;2023-03-29T01:59:33;100194.97;;;7.90;70.70
59825;BME280;45703;50.898;6.054;2023-03-29T02:02:01;100196.22;;;7.94;70.39
59825;BME280;45703;50.898;6.054;2023-03-29T02:04:36;100188.84;;;7.96;70.74
59825;BME280;45703;50.898;6.054;2023-03-29T02:07:04;100191.09;;;7.99;70.47
59825;BME280;45703;50.898;6.054;2023-03-29T02:09:34;100184.75;;;8.00;70.87
59825;BME280;45703;50.898;6.054;2023-03-29T02:12:01;100178.84;;;7.98;70.49
59825;BME280;45703;50.898;6.054;2023-03-29T02:14:28;100182.91;;;8.00;70.70
59825;BME280;45703;50.898;6.054;2023-03-29T02:16:54;100182.72;;;8.02;70.64
59825;BME280;45703;50.898;6.054;2023-03-29T02:19:20;100180.06;;;8.02;70.51
59825;BME280;45703;50.898;6.054;2023-03-29T02:22:08;100174.31;;;8.05;70.87
59825;BME280;45703;50.898;6.054;2023-03-29T02:24:35;100180.25;;;8.07;70.64
59825;BME280;45703;50.898;6.054;2023-03-29T02:27:02;100167.56;;;8.02;70.99
59825;BME280;45703;50.898;6.054;2023-03-29T02:29:28;100170.84;;;8.11;70.33
59825;BME280;45703;50.898;6.054;2023-03-29T02:31:58;100169.63;;;8.07;70.70
59825;BME280;45703;50.898;6.054;2023-03-29T02:34:39;100167.75;;;8.14;70.33
59825;BME280;45703;50.898;6.054;2023-03-29T02:37:11;100166.50;;;8.16;70.33
59825;BME280;45703;50.898;6.054;2023-03-29T02:39:40;100165.34;;;8.19;70.08
59825;BME280;45703;50.898;6.054;2023-03-29T02:42:06;100166.75;;;8.15;70.40
59825;BME280;45703;50.898;6.054;2023-03-29T02:44:35;100163.47;;;8.13;70.65
59825;BME280;45703;50.898;6.054;2023-03-29T02:47:06;100162.25;;;8.09;70.91
59825;BME280;45703;50.898;6.054;2023-03-29T02:49:33;100155.69;;;8.11;70.85
59825;BME280;45703;50.898;6.054;2023-03-29T02:52:05;100156.91;;;8.15;70.86
59825;BME280;45703;50.898;6.054;2023-03-29T02:54:33;100149.16;;;8.14;71.02
59825;BME280;45703;50.898;6.054;2023-03-29T02:57:02;100138.94;;;8.11;70.84
59825;BME280;45703;50.898;6.054;2023-03-29T02:59:30;100152.41;;;8.16;70.95
59825;BME280;45703;50.898;6.054;2023-03-29T03:01:58;100141.78;;;8.09;70.75
59825;BME280;45703;50.898;6.054;2023-03-29T03:04:23;100138.09;;;8.10;71.12
59825;BME280;45703;50.898;6.054;2023-03-29T03:06:49;100149.56;;;8.11;70.99
59825;BME280;45703;50.898;6.054;2023-03-29T03:09:15;100134.66;;;8.10;71.04
59825;BME280;45703;50.898;6.054;2023-03-29T03:11:41;100135.66;;;8.09;71.46
59825;BME280;45703;50.898;6.054;2023-03-29T03:14:06;100135.66;;;8.09;71.68
59825;BME280;45703;50.898;6.054;2023-03-29T03:16:32;100133.63;;;8.11;71.47
59825;BME280;45703;50.898;6.054;2023-03-29T03:18:57;100133.81;;;8.16;71.21
59825;BME280;45703;50.898;6.054;2023-03-29T03:21:23;100132.78;;;8.17;71.37
59825;BME280;45703;50.898;6.054;2023-03-29T03:23:49;100131.56;;;8.13;71.40
59825;BME280;45703;50.898;6.054;2023-03-29T03:26:15;100128.69;;;8.14;71.51
59825;BME280;45703;50.898;6.054;2023-03-29T03:28:42;100127.06;;;8.13;71.44
59825;BME280;45703;50.898;6.054;2023-03-29T03:31:07;100112.53;;;8.16;71.58
59825;BME280;45703;50.898;6.054;2023-03-29T03:33:33;100114.81;;;8.19;71.38
59825;BME280;45703;50.898;6.054;2023-03-29T03:35:59;100120.97;;;8.19;71.61
59825;BME280;45703;50.898;6.054;2023-03-29T03:38:30;100108.66;;;8.12;72.07
59825;BME280;45703;50.898;6.054;2023-03-29T03:40:57;100109.50;;;8.19;71.95
59825;BME280;45703;50.898;6.054;2023-03-29T03:43:22;100108.69;;;8.18;72.22
59825;BME280;45703;50.898;6.054;2023-03-29T03:45:48;100114.59;;;8.14;72.22
59825;BME280;45703;50.898;6.054;2023-03-29T03:48:13;100108.44;;;8.13;72.49
59825;BME280;45703;50.898;6.054;2023-03-29T03:50:39;100118.88;;;8.15;72.70
59825;BME280;45703;50.898;6.054;2023-03-29T03:53:05;100129.50;;;8.15;72.94
59825;BME280;45703;50.898;6.054;2023-03-29T03:55:32;100126.25;;;8.13;73.42
59825;BME280;45703;50.898;6.054;2023-03-29T03:57:58;100122.16;;;8.10;73.41
59825;BME280;45703;50.898;6.054;2023-03-29T04:00:24;100126.66;;;8.10;73.80
59825;BME280;45703;50.898;6.054;2023-03-29T04:02:51;100133.63;;;8.11;73.77
59825;BME280;45703;50.898;6.054;2023-03-29T04:05:19;100144.25;;;8.11;73.78
59825;BME280;45703;50.898;6.054;2023-03-29T04:07:44;100137.72;;;8.07;73.71
59825;BME280;45703;50.898;6.054;2023-03-29T04:10:13;100138.94;;;8.11;73.82
59825;BME280;45703;50.898;6.054;2023-03-29T04:12:41;100133.63;;;8.11;73.75
59825;BME280;45703;50.898;6.054;2023-03-29T04:15:07;100125.03;;;8.09;73.71
59825;BME280;45703;50.898;6.054;2023-03-29T04:17:34;100109.09;;;8.09;73.70
59825;BME280;45703;50.898;6.054;2023-03-29T04:20:00;100105.81;;;8.07;74.01
59825;BME280;45703;50.898;6.054;2023-03-29T04:22:30;100119.91;;;8.14;73.64
59825;BME280;45703;50.898;6.054;2023-03-29T04:24:55;100120.13;;;8.19;73.46
59825;BME280;45703;50.898;6.054;2023-03-29T04:27:21;100120.13;;;8.19;74.07
59825;BME280;45703;50.898;6.054;2023-03-29T04:29:46;100107.84;;;8.18;73.70
59825;BME280;45703;50.898;6.054;2023-03-29T04:32:12;100100.88;;;8.17;73.74
59825;BME280;45703;50.898;6.054;2023-03-29T04:34:37;100104.56;;;8.16;73.64
59825;BME280;45703;50.898;6.054;2023-03-29T04:37:03;100096.59;;;8.16;74.15
59825;BME280;45703;50.898;6.054;2023-03-29T04:39:37;100104.19;;;8.19;73.81
59825;BME280;45703;50.898;6.054;2023-03-29T04:42:03;100109.50;;;8.19;73.51
59825;BME280;45703;50.898;6.054;2023-03-29T04:44:29;100107.63;;;8.26;73.63
59825;BME280;45703;50.898;6.054;2023-03-29T04:46:58;100119.09;;;8.26;73.70
59825;BME280;45703;50.898;6.054;2023-03-29T04:49:24;100111.72;;;8.28;73.63
59825;BME280;45703;50.898;6.054;2023-03-29T04:51:49;100111.50;;;8.30;73.79
59825;BME280;45703;50.898;6.054;2023-03-29T04:54:14;100114.56;;;8.33;73.69
59825;BME280;45703;50.898;6.054;2023-03-29T04:56:40;100106.97;;;8.37;73.70
59825;BME280;45703;50.898;6.054;2023-03-29T04:59:05;100104.13;;;8.38;73.53
59825;BME280;45703;50.898;6.054;2023-03-29T05:01:31;100113.50;;;8.41;73.57
59825;BME280;45703;50.898;6.054;2023-03-29T05:03:56;100101.22;;;8.40;73.60
59825;BME280;45703;50.898;6.054;2023-03-29T05:06:22;100108.81;;;8.43;73.94
59825;BME280;45703;50.898;6.054;2023-03-29T05:08:47;100100.19;;;8.41;74.06
59825;BME280;45703;50.898;6.054;2023-03-29T05:11:13;100107.56;;;8.45;73.83
59825;BME280;45703;50.898;6.054;2023-03-29T05:13:39;100108.16;;;8.47;74.54
59825;BME280;45703;50.898;6.054;2023-03-29T05:16:05;100108.16;;;8.47;74.56
59825;BME280;45703;50.898;6.054;2023-03-29T05:18:32;100103.28;;;8.44;74.26
59825;BME280;45703;50.898;6.054;2023-03-29T05:20:58;100106.09;;;8.49;74.80
59825;BME280;45703;50.898;6.054;2023-03-29T05:23:24;100108.56;;;8.51;75.10
59825;BME280;45703;50.898;6.054;2023-03-29T05:25:50;100103.69;;;8.48;75.39
59825;BME280;45703;50.898;6.054;2023-03-29T05:28:17;100102.03;;;8.47;75.39
59825;BME280;45703;50.898;6.054;2023-03-29T05:30:43;100091.41;;;8.47;75.50
59825;BME280;45703;50.898;6.054;2023-03-29T05:33:10;100105.69;;;8.52;75.22
59825;BME280;45703;50.898;6.054;2023-03-29T05:35:35;100105.69;;;8.52;75.54
59825;BME280;45703;50.898;6.054;2023-03-29T05:38:02;100092.19;;;8.54;75.90
59825;BME280;45703;50.898;6.054;2023-03-29T05:40:29;100104.63;;;8.59;75.50
59825;BME280;45703;50.898;6.054;2023-03-29T05:42:56;100100.94;;;8.60;75.42
59825;BME280;45703;50.898;6.054;2023-03-29T05:45:21;100099.94;;;8.61;75.23
59825;BME280;45703;50.898;6.054;2023-03-29T05:47:47;100101.72;;;8.67;74.98
59825;BME280;45703;50.898;6.054;2023-03-29T05:50:12;100097.00;;;8.69;75.68
59825;BME280;45703;50.898;6.054;2023-03-29T05:52:38;100091.50;;;8.64;76.43
59825;BME280;45703;50.898;6.054;2023-03-29T05:55:05;100103.16;;;8.70;76.84
59825;BME280;45703;50.898;6.054;2023-03-29T05:57:34;100099.25;;;8.72;76.04
59825;BME280;45703;50.898;6.054;2023-03-29T06:00:05;100102.34;;;8.69;76.28
59825;BME280;45703;50.898;6.054;2023-03-29T06:03:00;100097.00;;;8.69;76.98
59825;BME280;45703;50.898;6.054;2023-03-29T06:05:25;100103.53;;;8.73;76.76
59825;BME280;45703;50.898;6.054;2023-03-29T06:07:51;100105.78;;;8.76;76.32
59825;BME280;45703;50.898;6.054;2023-03-29T06:10:17;100105.16;;;8.81;76.44
59825;BME280;45703;50.898;6.054;2023-03-29T06:12:43;100092.03;;;8.79;75.95
59825;BME280;45703;50.898;6.054;2023-03-29T06:15:09;100101.41;;;8.88;76.43
59825;BME280;45703;50.898;6.054;2023-03-29T06:17:35;100095.06;;;8.89;76.75
59825;BME280;45703;50.898;6.054;2023-03-29T06:20:00;100096.88;;;8.95;76.92
59825;BME280;45703;50.898;6.054;2023-03-29T06:22:35;100109.09;;;9.03;76.45
59825;BME280;45703;50.898;6.054;2023-03-29T06:25:02;100093.31;;;9.08;76.57
59825;BME280;45703;50.898;6.054;2023-03-29T06:27:27;100098.59;;;9.14;76.52
59825;BME280;45703;50.898;6.054;2023-03-29T06:29:53;100090.97;;;9.18;76.84
59825;BME280;45703;50.898;6.054;2023-03-29T06:32:18;100094.44;;;9.25;76.79
59825;BME280;45703;50.898;6.054;2023-03-29T06:34:44;100090.91;;;9.31;75.77
59825;BME280;45703;50.898;6.054;2023-03-29T06:37:09;100096.16;;;9.37;75.67
59825;BME280;45703;50.898;6.054;2023-03-29T06:39:35;100094.88;;;9.46;75.33
59825;BME280;45703;50.898;6.054;2023-03-29T06:42:00;100101.19;;;9.52;76.23
59825;BME280;45703;50.898;6.054;2023-03-29T06:44:25;100100.53;;;9.56;75.91
59825;BME280;45703;50.898;6.054;2023-03-29T06:46:52;100107.06;;;9.60;75.83
59825;BME280;45703;50.898;6.054;2023-03-29T06:49:18;100112.13;;;9.68;75.93
59825;BME280;45703;50.898;6.054;2023-03-29T06:51:43;100114.94;;;9.73;75.72
59825;BME280;45703;50.898;6.054;2023-03-29T06:54:09;100099.97;;;9.72;75.51
59825;BME280;45703;50.898;6.054;2023-03-29T06:56:35;100107.25;;;9.83;75.48
59825;BME280;45703;50.898;6.054;2023-03-29T06:59:01;100103.56;;;9.84;75.41
59825;BME280;45703;50.898;6.054;2023-03-29T07:01:27;100109.63;;;9.91;75.72
59825;BME280;45703;50.898;6.054;2023-03-29T07:03:52;100108.00;;;9.90;75.46
59825;BME280;45703;50.898;6.054;2023-03-29T07:06:19;100099.75;;;9.98;75.78
59825;BME280;45703;50.898;6.054;2023-03-29T07:08:47;100106.66;;;10.05;75.39
59825;BME280;45703;50.898;6.054;2023-03-29T07:11:14;100110.75;;;10.08;75.66
59825;BME280;45703;50.898;6.054;2023-03-29T07:13:47;100095.09;;;10.11;74.98
59825;BME280;45703;50.898;6.054;2023-03-29T07:16:15;100108.75;;;10.21;75.02
59825;BME280;45703;50.898;6.054;2023-03-29T07:18:42;100108.91;;;10.26;74.97
59825;BME280;45703;50.898;6.054;2023-03-29T07:21:10;100099.41;;;10.30;74.57
59825;BME280;45703;50.898;6.054;2023-03-29T07:23:37;100108.38;;;10.36;75.00
59825;BME280;45703;50.898;6.054;2023-03-29T07:26:04;100108.00;;;10.32;74.80
59825;BME280;45703;50.898;6.054;2023-03-29T07:28:31;100121.84;;;10.41;74.87
59825;BME280;45703;50.898;6.054;2023-03-29T07:31:06;100110.31;;;10.47;75.01
59825;BME280;45703;50.898;6.054;2023-03-29T07:33:32;100110.47;;;10.52;74.94
59825;BME280;45703;50.898;6.054;2023-03-29T07:35:59;100105.25;;;10.57;74.64
59825;BME280;45703;50.898;6.054;2023-03-29T07:38:24;100115.03;;;10.63;74.56
59825;BME280;45703;50.898;6.054;2023-03-29T07:40:51;100115.78;;;10.70;74.63
59825;BME280;45703;50.898;6.054;2023-03-29T07:43:17;100109.19;;;10.72;74.60
59825;BME280;45703;50.898;6.054;2023-03-29T07:45:43;100121.75;;;10.83;74.44
59825;BME280;45703;50.898;6.054;2023-03-29T07:48:09;100115.13;;;10.86;74.75
59825;BME280;45703;50.898;6.054;2023-03-29T07:50:34;100119.56;;;10.92;74.51
59825;BME280;45703;50.898;6.054;2023-03-29T07:52:59;100126.09;;;10.96;74.47
59825;BME280;45703;50.898;6.054;2023-03-29T07:55:25;100141.00;;;11.03;74.11
59825;BME280;45703;50.898;6.054;2023-03-29T07:57:51;100139.16;;;11.04;74.27
59825;BME280;45703;50.898;6.054;2023-03-29T08:00:18;100136.25;;;11.05;74.07
59825;BME280;45703;50.898;6.054;2023-03-29T08:02:48;100133.38;;;11.07;74.24
59825;BME280;45703;50.898;6.054;2023-03-29T08:05:15;100130.31;;;11.03;74.34
59825;BME280;45703;50.898;6.054;2023-03-29T08:07:42;100137.22;;;11.11;74.62
59825;BME280;45703;50.898;6.054;2023-03-29T08:10:10;100134.88;;;11.14;74.86
59825;BME280;45703;50.898;6.054;2023-03-29T08:12:38;100136.88;;;11.19;74.53
59825;BME280;45703;50.898;6.054;2023-03-29T08:15:07;100135.97;;;11.25;74.72
59825;BME280;45703;50.898;6.054;2023-03-29T08:17:33;100137.97;;;11.29;74.26
59825;BME280;45703;50.898;6.054;2023-03-29T08:19:59;100144.81;;;11.37;74.05
59825;BME280;45703;50.898;6.054;2023-03-29T08:22:24;100137.84;;;11.36;74.24
59825;BME280;45703;50.898;6.054;2023-03-29T08:24:50;100141.81;;;11.44;74.08
59825;BME280;45703;50.898;6.054;2023-03-29T08:27:15;100137.69;;;11.48;73.98
59825;BME280;45703;50.898;6.054;2023-03-29T08:29:41;100133.50;;;11.52;74.06
59825;BME280;45703;50.898;6.054;2023-03-29T08:32:09;100121.75;;;11.53;73.86
59825;BME280;45703;50.898;6.054;2023-03-29T08:34:35;100117.59;;;11.57;73.82
59825;BME280;45703;50.898;6.054;2023-03-29T08:37:01;100121.00;;;11.64;73.56
59825;BME280;45703;50.898;6.054;2023-03-29T08:39:27;100124.25;;;11.66;73.49
59825;BME280;45703;50.898;6.054;2023-03-29T08:47:41;100129.03;;;11.76;73.56
59825;BME280;45703;50.898;6.054;2023-03-29T08:50:10;100125.78;;;11.74;73.70
59825;BME280;45703;50.898;6.054;2023-03-29T08:52:42;100129.38;;;11.79;73.65
59825;BME280;45703;50.898;6.054;2023-03-29T08:56:03;100131.81;;;11.81;73.44
59825;BME280;45703;50.898;6.054;2023-03-29T08:58:05;100139.59;;;11.82;73.02
59825;BME280;45703;50.898;6.054;2023-03-29T09:00:42;100135.75;;;11.78;73.08
59825;BME280;45703;50.898;6.054;2023-03-29T09:03:12;100135.19;;;11.76;73.26
59825;BME280;45703;50.898;6.054;2023-03-29T09:05:44;100143.78;;;11.78;73.17
59825;BME280;45703;50.898;6.054;2023-03-29T09:08:13;100135.19;;;11.76;73.11
59825;BME280;45703;50.898;6.054;2023-03-29T09:16:21;100139.72;;;11.76;73.62
59825;BME280;45703;50.898;6.054;2023-03-29T09:32:16;100133.78;;;11.85;73.12
59825;BME280;45703;50.898;6.054;2023-03-29T09:34:51;100129.03;;;11.87;73.25
59825;BME280;45703;50.898;6.054;2023-03-29T09:37:31;100120.06;;;11.93;73.03
59825;BME280;45703;50.898;6.054;2023-03-29T09:39:58;100114.81;;;11.98;73.43
59825;BME280;45703;50.898;6.054;2023-03-29T09:42:26;100121.47;;;12.07;72.83
59825;BME280;45703;50.898;6.054;2023-03-29T09:45:01;100109.84;;;12.13;73.04
59825;BME280;45703;50.898;6.054;2023-03-29T09:47:35;100115.19;;;12.25;72.82
59825;BME280;45703;50.898;6.054;2023-03-29T09:50:08;100116.44;;;12.34;73.08
59825;BME280;45703;50.898;6.054;2023-03-29T09:52:35;100115.03;;;12.43;73.10
59825;BME280;45703;50.898;6.054;2023-03-29T09:55:02;100115.59;;;12.56;72.54
59825;BME280;45703;50.898;6.054;2023-03-29T09:57:28;100117.06;;;12.64;71.87
59825;BME280;45703;50.898;6.054;2023-03-29T09:59:55;100115.31;;;12.69;72.34
59825;BME280;45703;50.898;6.054;2023-03-29T10:02:21;100107.94;;;12.76;72.42
59825;BME280;45703;50.898;6.054;2023-03-29T10:04:51;100099.91;;;12.76;71.62
59825;BME280;45703;50.898;6.054;2023-03-29T10:07:19;100095.69;;;12.80;71.78
59825;BME280;45703;50.898;6.054;2023-03-29T10:09:45;100091.50;;;12.84;71.18
59825;BME280;45703;50.898;6.054;2023-03-29T10:12:12;100094.66;;;12.93;71.75
59825;BME280;45703;50.898;6.054;2023-03-29T10:14:51;100094.03;;;13.02;72.13
59825;BME280;45703;50.898;6.054;2023-03-29T10:17:20;100093.72;;;13.15;72.18
59825;BME280;45703;50.898;6.054;2023-03-29T10:19:54;100081.72;;;13.34;72.05
59825;BME280;45703;50.898;6.054;2023-03-29T10:22:28;100101.97;;;13.58;71.35
59825;BME280;45703;50.898;6.054;2023-03-29T10:24:56;100100.03;;;13.70;70.78
59825;BME280;45703;50.898;6.054;2023-03-29T10:27:30;100101.72;;;13.76;71.02
59825;BME280;45703;50.898;6.054;2023-03-29T10:30:07;100096.38;;;13.76;70.83
59825;BME280;45703;50.898;6.054;2023-03-29T10:32:36;100101.22;;;13.79;70.09
59825;BME280;45703;50.898;6.054;2023-03-29T10:35:20;100087.81;;;13.79;70.84
59825;BME280;45703;50.898;6.054;2023-03-29T10:37:49;100100.66;;;13.77;70.60
59825;BME280;45703;50.898;6.054;2023-03-29T10:40:21;100084.56;;;13.77;70.45
59825;BME280;45703;50.898;6.054;2023-03-29T10:42:50;100080.34;;;13.81;70.66
59825;BME280;45703;50.898;6.054;2023-03-29T10:45:27;100078.28;;;13.88;71.23
59825;BME280;45703;50.898;6.054;2023-03-29T10:47:57;100078.44;;;13.98;71.02
59825;BME280;45703;50.898;6.054;2023-03-29T10:50:24;100076.66;;;14.03;70.69
59825;BME280;45703;50.898;6.054;2023-03-29T10:52:49;100074.28;;;14.07;70.47
59825;BME280;45703;50.898;6.054;2023-03-29T10:55:18;100075.16;;;14.12;70.51
59825;BME280;45703;50.898;6.054;2023-03-29T11:00:40;100083.63;;;14.21;70.80
59825;BME280;45703;50.898;6.054;2023-03-29T11:13:56;100053.28;;;14.63;70.75
59825;BME280;45703;50.898;6.054;2023-03-29T11:28:48;100040.22;;;15.56;69.44
59825;BME280;45703;50.898;6.054;2023-03-29T11:31:17;100028.16;;;15.63;69.23
59825;BME280;45703;50.898;6.054;2023-03-29T11:42:52;100030.34;;;15.66;68.24
59825;BME280;45703;50.898;6.054;2023-03-29T11:45:28;100030.88;;;15.63;68.54
59825;BME280;45703;50.898;6.054;2023-03-29T11:47:58;100036.53;;;15.67;67.62
59825;BME280;45703;50.898;6.054;2023-03-29T11:50:46;100038.38;;;15.61;67.58
59825;BME280;45703;50.898;6.054;2023-03-29T11:53:21;100036.75;;;15.60;67.03
59825;BME280;45703;50.898;6.054;2023-03-29T11:55:49;100026.00;;;15.60;66.73
59825;BME280;45703;50.898;6.054;2023-03-29T11:58:20;100029.47;;;15.61;67.16
59825;BME280;45703;50.898;6.054;2023-03-29T12:00:51;100020.91;;;15.64;67.47
59825;BME280;45703;50.898;6.054;2023-03-29T12:08:41;100011.69;;;16.01;67.50
59825;BME280;45703;50.898;6.054;2023-03-29T12:13:58;100012.38;;;16.28;67.11
59825;BME280;45703;50.898;6.054;2023-03-29T12:16:38;100004.28;;;16.28;66.44
59825;BME280;45703;50.898;6.054;2023-03-29T12:19:17;100006.41;;;16.21;64.73
59825;BME280;45703;50.898;6.054;2023-03-29T12:21:45;100012.34;;;16.18;65.63
59825;BME280;45703;50.898;6.054;2023-03-29T12:24:13;100004.22;;;16.13;65.02
59825;BME280;45703;50.898;6.054;2023-03-29T12:36:20;100006.25;;;16.37;65.80
59825;BME280;45703;50.898;6.054;2023-03-29T12:38:36;100002.22;;;16.45;65.41
59825;BME280;45703;50.898;6.054;2023-03-29T12:41:15;100007.06;;;16.48;64.51
59825;BME280;45703;50.898;6.054;2023-03-29T12:43:43;100006.00;;;16.54;65.92
59825;BME280;45703;50.898;6.054;2023-03-29T12:46:15;99995.75;;;16.51;64.93
59825;BME280;45703;50.898;6.054;2023-03-29T12:48:44;99989.81;;;16.44;64.77
59825;BME280;45703;50.898;6.054;2023-03-29T12:51:15;99986.06;;;16.45;65.69
59825;BME280;45703;50.898;6.054;2023-03-29T12:53:51;99989.28;;;16.42;66.37
59825;BME280;45703;50.898;6.054;2023-03-29T12:56:22;99993.88;;;16.41;65.57
59825;BME280;45703;50.898;6.054;2023-03-29T13:01:28;99981.47;;;16.40;64.96
59825;BME280;45703;50.898;6.054;2023-03-29T13:03:55;99977.94;;;16.40;65.04
59825;BME280;45703;50.898;6.054;2023-03-29T13:09:23;99950.22;;;16.39;65.64
59825;BME280;45703;50.898;6.054;2023-03-29T13:11:54;99940.78;;;16.42;65.74
59825;BME280;45703;50.898;6.054;2023-03-29T13:14:25;99931.63;;;16.48;65.32
59825;BME280;45703;50.898;6.054;2023-03-29T13:16:52;99930.00;;;16.52;65.67
59825;BME280;45703;50.898;6.054;2023-03-29T13:19:32;99931.38;;;16.54;64.92
59825;BME280;45703;50.898;6.054;2023-03-29T13:22:39;99922.50;;;16.69;66.54
59825;BME280;45703;50.898;6.054;2023-03-29T13:25:18;99927.91;;;16.79;65.86
59825;BME280;45703;50.898;6.054;2023-03-29T13:30:56;99923.88;;;16.96;65.45
59825;BME280;45703;50.898;6.054;2023-03-29T13:33:42;99913.88;;;17.07;65.73
59825;BME280;45703;50.898;6.054;2023-03-29T13:39:27;99904.16;;;17.21;64.68
59825;BME280;45703;50.898;6.054;2023-03-29T13:42:25;99903.63;;;17.24;64.81
59825;BME280;45703;50.898;6.054;2023-03-29T13:45:13;99907.09;;;17.29;64.67
59825;BME280;45703;50.898;6.054;2023-03-29T13:47:41;99900.38;;;17.32;64.05
59825;BME280;45703;50.898;6.054;2023-03-29T13:50:19;99903.63;;;17.34;65.25
59825;BME280;45703;50.898;6.054;2023-03-29T13:53:11;99902.53;;;17.40;65.03
59825;BME280;45703;50.898;6.054;2023-03-29T13:55:51;99896.59;;;17.42;64.93
59825;BME280;45703;50.898;6.054;2023-03-29T13:58:31;99889.56;;;17.42;64.65
59825;BME280;45703;50.898;6.054;2023-03-29T14:01:05;99885.00;;;17.42;64.85
59825;BME280;45703;50.898;6.054;2023-03-29T14:03:41;99879.31;;;17.39;64.12
59825;BME280;45703;50.898;6.054;2023-03-29T14:06:08;99878.78;;;17.42;64.31
59825;BME280;45703;50.898;6.054;2023-03-29T14:08:38;99875.53;;;17.40;65.07
59825;BME280;45703;50.898;6.054;2023-03-29T14:11:09;99876.91;;;17.37;65.39
59825;BME280;45703;50.898;6.054;2023-03-29T14:13:37;99878.78;;;17.32;64.75
59825;BME280;45703;50.898;6.054;2023-03-29T14:16:10;99879.34;;;17.24;64.37
59825;BME280;45703;50.898;6.054;2023-03-29T14:18:39;99886.91;;;17.17;65.13
59825;BME280;45703;50.898;6.054;2023-03-29T14:21:05;99878.53;;;17.08;65.71
59825;BME280;45703;50.898;6.054;2023-03-29T14:23:34;99869.09;;;17.01;66.01
59825;BME280;45703;50.898;6.054;2023-03-29T14:26:11;99879.09;;;16.95;66.32
59825;BME280;45703;50.898;6.054;2023-03-29T14:28:59;99874.81;;;16.89;66.99
59825;BME280;45703;50.898;6.054;2023-03-29T14:33:57;99869.38;;;16.79;67.84
59825;BME280;45703;50.898;6.054;2023-03-29T14:36:25;99862.66;;;16.72;68.37
59825;BME280;45703;50.898;6.054;2023-03-29T14:38:56;99865.63;;;16.70;68.93
59825;BME280;45703;50.898;6.054;2023-03-29T14:41:28;99856.47;;;16.66;69.47
59825;BME280;45703;50.898;6.054;2023-03-29T14:43:55;99860.75;;;16.67;69.93
59825;BME280;45703;50.898;6.054;2023-03-29T14:46:21;99853.75;;;16.66;69.61